sensor_id;sensor_type;location;lat;lon;timestamp;P1;durP1;ratioP1;P2;durP2;ratioP2
28756;SDS011;44294;48.282;14.282;2024-03-02T00:01:51;61.13;;;27.87;;
28756;SDS011;44294;48.282;14.282;2024-03-02T00:04:39;57.50;;;28.03;;
28756;SDS011;44294;48.282;14.282;2024-03-02T00:07:26;54.30;;;26.00;;
28756;SDS011;44294;48.282;14.282;2024-03-02T00:10:19;46.17;;;23.43;;
28756;SDS011;44294;48.282;14.282;2024-03-02T00:13:08;54.43;;;27.40;;
28756;SDS011;44294;48.282;14.282;2024-03-02T00:15:56;56.27;;;26.73;;
28756;SDS011;44294;48.282;14.282;2024-03-02T00:18:44;57.70;;;28.47;;
28756;SDS011;44294;48.282;14.282;2024-03-02T00:21:31;57.80;;;28.03;;
28756;SDS011;44294;48.282;14.282;2024-03-02T00:24:24;51.50;;;25.27;;
28756;SDS011;44294;48.282;14.282;2024-03-02T00:27:08;45.37;;;23.27;;
28756;SDS011;44294;48.282;14.282;2024-03-02T00:29:57;53.03;;;25.03;;
28756;SDS011;44294;48.282;14.282;2024-03-02T00:32:45;52.20;;;25.77;;
28756;SDS011;44294;48.282;14.282;2024-03-02T00:35:32;54.47;;;26.07;;
28756;SDS011;44294;48.282;14.282;2024-03-02T00:38:20;56.73;;;27.17;;
28756;SDS011;44294;48.282;14.282;2024-03-02T00:41:07;51.73;;;25.73;;
28756;SDS011;44294;48.282;14.282;2024-03-02T00:43:57;44.13;;;23.77;;
28756;SDS011;44294;48.282;14.282;2024-03-02T00:46:43;46.57;;;23.20;;
28756;SDS011;44294;48.282;14.282;2024-03-02T00:49:31;50.87;;;23.83;;
28756;SDS011;44294;48.282;14.282;2024-03-02T00:52:18;53.93;;;26.20;;
28756;SDS011;44294;48.282;14.282;2024-03-02T00:55:06;47.07;;;23.00;;
28756;SDS011;44294;48.282;14.282;2024-03-02T00:57:53;49.70;;;24.30;;
28756;SDS011;44294;48.282;14.282;2024-03-02T01:00:40;48.90;;;24.07;;
28756;SDS011;44294;48.282;14.282;2024-03-02T01:03:28;48.93;;;24.80;;
28756;SDS011;44294;48.282;14.282;2024-03-02T01:06:15;49.53;;;24.47;;
28756;SDS011;44294;48.282;14.282;2024-03-02T01:09:03;50.37;;;23.73;;
28756;SDS011;44294;48.282;14.282;2024-03-02T01:11:50;49.97;;;24.20;;
28756;SDS011;44294;48.282;14.282;2024-03-02T01:14:38;48.00;;;24.17;;
28756;SDS011;44294;48.282;14.282;2024-03-02T01:17:25;41.80;;;22.10;;
28756;SDS011;44294;48.282;14.282;2024-03-02T01:20:13;46.27;;;22.83;;
28756;SDS011;44294;48.282;14.282;2024-03-02T01:23:00;45.13;;;22.50;;
28756;SDS011;44294;48.282;14.282;2024-03-02T01:25:48;47.90;;;23.97;;
28756;SDS011;44294;48.282;14.282;2024-03-02T01:28:35;45.20;;;23.30;;
28756;SDS011;44294;48.282;14.282;2024-03-02T01:31:22;43.50;;;22.33;;
28756;SDS011;44294;48.282;14.282;2024-03-02T01:34:10;45.90;;;23.93;;
28756;SDS011;44294;48.282;14.282;2024-03-02T01:36:59;49.80;;;24.37;;
28756;SDS011;44294;48.282;14.282;2024-03-02T01:39:46;44.97;;;23.27;;
28756;SDS011;44294;48.282;14.282;2024-03-02T01:42:33;50.00;;;25.00;;
28756;SDS011;44294;48.282;14.282;2024-03-02T01:45:21;48.40;;;24.37;;
28756;SDS011;44294;48.282;14.282;2024-03-02T01:48:08;48.07;;;23.70;;
28756;SDS011;44294;48.282;14.282;2024-03-02T01:54:19;50.93;;;24.33;;
28756;SDS011;44294;48.282;14.282;2024-03-02T01:57:07;47.50;;;24.73;;
28756;SDS011;44294;48.282;14.282;2024-03-02T01:59:54;49.27;;;24.20;;
28756;SDS011;44294;48.282;14.282;2024-03-02T02:02:41;51.87;;;26.00;;
28756;SDS011;44294;48.282;14.282;2024-03-02T02:05:29;52.57;;;25.93;;
28756;SDS011;44294;48.282;14.282;2024-03-02T02:08:17;57.33;;;26.77;;
28756;SDS011;44294;48.282;14.282;2024-03-02T02:11:05;54.40;;;26.20;;
28756;SDS011;44294;48.282;14.282;2024-03-02T02:13:52;50.60;;;24.90;;
28756;SDS011;44294;48.282;14.282;2024-03-02T02:16:41;51.77;;;25.70;;
28756;SDS011;44294;48.282;14.282;2024-03-02T02:19:28;50.53;;;26.10;;
28756;SDS011;44294;48.282;14.282;2024-03-02T02:22:16;52.57;;;26.40;;
28756;SDS011;44294;48.282;14.282;2024-03-02T02:25:03;50.77;;;25.77;;
28756;SDS011;44294;48.282;14.282;2024-03-02T02:27:51;53.37;;;27.43;;
28756;SDS011;44294;48.282;14.282;2024-03-02T02:30:38;56.57;;;28.23;;
28756;SDS011;44294;48.282;14.282;2024-03-02T02:33:25;52.60;;;26.40;;
28756;SDS011;44294;48.282;14.282;2024-03-02T02:36:13;53.20;;;27.17;;
28756;SDS011;44294;48.282;14.282;2024-03-02T02:39:01;50.37;;;25.30;;
28756;SDS011;44294;48.282;14.282;2024-03-02T02:41:53;55.80;;;28.07;;
28756;SDS011;44294;48.282;14.282;2024-03-02T02:44:40;52.43;;;26.77;;
28756;SDS011;44294;48.282;14.282;2024-03-02T02:47:27;52.67;;;27.03;;
28756;SDS011;44294;48.282;14.282;2024-03-02T02:50:16;51.67;;;26.57;;
28756;SDS011;44294;48.282;14.282;2024-03-02T02:53:03;52.43;;;26.73;;
28756;SDS011;44294;48.282;14.282;2024-03-02T02:55:51;57.30;;;28.43;;
28756;SDS011;44294;48.282;14.282;2024-03-02T02:58:39;55.87;;;28.73;;
28756;SDS011;44294;48.282;14.282;2024-03-02T03:01:28;55.83;;;27.90;;
28756;SDS011;44294;48.282;14.282;2024-03-02T03:04:15;56.10;;;28.23;;
28756;SDS011;44294;48.282;14.282;2024-03-02T03:07:03;54.63;;;28.90;;
28756;SDS011;44294;48.282;14.282;2024-03-02T03:09:50;57.63;;;28.53;;
28756;SDS011;44294;48.282;14.282;2024-03-02T03:12:37;59.37;;;29.30;;
28756;SDS011;44294;48.282;14.282;2024-03-02T03:15:26;58.20;;;29.40;;
28756;SDS011;44294;48.282;14.282;2024-03-02T03:18:13;60.63;;;29.07;;
28756;SDS011;44294;48.282;14.282;2024-03-02T03:21:01;58.07;;;29.33;;
28756;SDS011;44294;48.282;14.282;2024-03-02T03:23:48;62.47;;;29.93;;
28756;SDS011;44294;48.282;14.282;2024-03-02T03:26:36;53.97;;;27.37;;
28756;SDS011;44294;48.282;14.282;2024-03-02T03:29:23;58.03;;;28.87;;
28756;SDS011;44294;48.282;14.282;2024-03-02T03:32:11;58.07;;;29.30;;
28756;SDS011;44294;48.282;14.282;2024-03-02T03:34:58;64.90;;;31.03;;
28756;SDS011;44294;48.282;14.282;2024-03-02T03:37:46;57.83;;;29.13;;
28756;SDS011;44294;48.282;14.282;2024-03-02T03:40:33;55.13;;;28.50;;
28756;SDS011;44294;48.282;14.282;2024-03-02T03:43:20;61.23;;;30.40;;
28756;SDS011;44294;48.282;14.282;2024-03-02T03:46:07;65.00;;;31.70;;
28756;SDS011;44294;48.282;14.282;2024-03-02T03:48:55;65.23;;;32.33;;
28756;SDS011;44294;48.282;14.282;2024-03-02T03:51:42;63.03;;;29.93;;
28756;SDS011;44294;48.282;14.282;2024-03-02T03:54:29;65.23;;;31.77;;
28756;SDS011;44294;48.282;14.282;2024-03-02T03:57:17;64.10;;;30.93;;
28756;SDS011;44294;48.282;14.282;2024-03-02T04:00:04;67.40;;;31.83;;
28756;SDS011;44294;48.282;14.282;2024-03-02T04:02:53;63.73;;;30.47;;
28756;SDS011;44294;48.282;14.282;2024-03-02T04:05:40;67.83;;;32.70;;
28756;SDS011;44294;48.282;14.282;2024-03-02T04:08:27;63.93;;;31.20;;
28756;SDS011;44294;48.282;14.282;2024-03-02T04:11:15;68.63;;;33.47;;
28756;SDS011;44294;48.282;14.282;2024-03-02T04:14:02;63.70;;;31.70;;
28756;SDS011;44294;48.282;14.282;2024-03-02T04:16:50;63.43;;;31.37;;
28756;SDS011;44294;48.282;14.282;2024-03-02T04:19:38;67.63;;;33.30;;
28756;SDS011;44294;48.282;14.282;2024-03-02T04:22:25;65.07;;;32.43;;
28756;SDS011;44294;48.282;14.282;2024-03-02T04:25:13;64.53;;;30.83;;
28756;SDS011;44294;48.282;14.282;2024-03-02T04:28:00;62.57;;;30.70;;
28756;SDS011;44294;48.282;14.282;2024-03-02T04:30:47;63.47;;;31.30;;
28756;SDS011;44294;48.282;14.282;2024-03-02T04:33:35;69.90;;;33.57;;
28756;SDS011;44294;48.282;14.282;2024-03-02T04:36:22;69.30;;;32.87;;
28756;SDS011;44294;48.282;14.282;2024-03-02T04:39:10;71.83;;;32.97;;
28756;SDS011;44294;48.282;14.282;2024-03-02T04:41:57;70.83;;;33.30;;
28756;SDS011;44294;48.282;14.282;2024-03-02T04:44:45;69.07;;;33.13;;
28756;SDS011;44294;48.282;14.282;2024-03-02T04:47:32;68.77;;;32.07;;
28756;SDS011;44294;48.282;14.282;2024-03-02T04:50:19;65.40;;;32.10;;
28756;SDS011;44294;48.282;14.282;2024-03-02T04:53:07;64.27;;;29.97;;
28756;SDS011;44294;48.282;14.282;2024-03-02T04:55:54;64.97;;;30.67;;
28756;SDS011;44294;48.282;14.282;2024-03-02T04:58:43;71.70;;;31.73;;
28756;SDS011;44294;48.282;14.282;2024-03-02T05:01:31;64.47;;;30.73;;
28756;SDS011;44294;48.282;14.282;2024-03-02T05:04:18;64.20;;;29.97;;
28756;SDS011;44294;48.282;14.282;2024-03-02T05:07:06;68.50;;;32.43;;
28756;SDS011;44294;48.282;14.282;2024-03-02T05:09:53;67.97;;;31.87;;
28756;SDS011;44294;48.282;14.282;2024-03-02T05:12:40;60.50;;;28.70;;
28756;SDS011;44294;48.282;14.282;2024-03-02T05:15:32;59.00;;;27.27;;
28756;SDS011;44294;48.282;14.282;2024-03-02T05:18:20;63.40;;;30.37;;
28756;SDS011;44294;48.282;14.282;2024-03-02T05:21:07;66.10;;;30.67;;
28756;SDS011;44294;48.282;14.282;2024-03-02T05:23:54;67.93;;;31.50;;
28756;SDS011;44294;48.282;14.282;2024-03-02T05:26:41;62.17;;;28.43;;
28756;SDS011;44294;48.282;14.282;2024-03-02T05:29:30;65.70;;;30.77;;
28756;SDS011;44294;48.282;14.282;2024-03-02T05:32:17;54.03;;;26.73;;
28756;SDS011;44294;48.282;14.282;2024-03-02T05:35:04;63.77;;;29.73;;
28756;SDS011;44294;48.282;14.282;2024-03-02T05:37:52;62.07;;;29.00;;
28756;SDS011;44294;48.282;14.282;2024-03-02T05:40:39;65.57;;;29.73;;
28756;SDS011;44294;48.282;14.282;2024-03-02T05:43:27;58.60;;;27.60;;
28756;SDS011;44294;48.282;14.282;2024-03-02T05:46:14;69.63;;;30.80;;
28756;SDS011;44294;48.282;14.282;2024-03-02T05:49:02;56.43;;;27.60;;
28756;SDS011;44294;48.282;14.282;2024-03-02T05:51:49;62.83;;;30.53;;
28756;SDS011;44294;48.282;14.282;2024-03-02T05:54:36;66.80;;;31.07;;
28756;SDS011;44294;48.282;14.282;2024-03-02T05:57:25;67.47;;;31.10;;
28756;SDS011;44294;48.282;14.282;2024-03-02T06:00:20;66.17;;;30.27;;
28756;SDS011;44294;48.282;14.282;2024-03-02T06:03:08;64.00;;;30.83;;
28756;SDS011;44294;48.282;14.282;2024-03-02T06:05:55;64.77;;;30.37;;
28756;SDS011;44294;48.282;14.282;2024-03-02T06:08:43;67.80;;;30.73;;
28756;SDS011;44294;48.282;14.282;2024-03-02T06:11:30;65.03;;;30.53;;
28756;SDS011;44294;48.282;14.282;2024-03-02T06:14:17;68.00;;;30.40;;
28756;SDS011;44294;48.282;14.282;2024-03-02T06:17:05;73.83;;;32.50;;
28756;SDS011;44294;48.282;14.282;2024-03-02T06:19:52;66.17;;;30.50;;
28756;SDS011;44294;48.282;14.282;2024-03-02T06:22:40;69.33;;;31.73;;
28756;SDS011;44294;48.282;14.282;2024-03-02T06:25:27;65.80;;;31.37;;
28756;SDS011;44294;48.282;14.282;2024-03-02T06:28:14;66.90;;;31.63;;
28756;SDS011;44294;48.282;14.282;2024-03-02T06:31:02;77.67;;;33.37;;
28756;SDS011;44294;48.282;14.282;2024-03-02T06:33:50;67.20;;;31.10;;
28756;SDS011;44294;48.282;14.282;2024-03-02T06:36:38;66.43;;;30.93;;
28756;SDS011;44294;48.282;14.282;2024-03-02T06:39:26;64.00;;;30.20;;
28756;SDS011;44294;48.282;14.282;2024-03-02T06:42:13;70.73;;;32.20;;
28756;SDS011;44294;48.282;14.282;2024-03-02T06:45:01;63.03;;;30.73;;
28756;SDS011;44294;48.282;14.282;2024-03-02T06:47:49;66.53;;;30.90;;
28756;SDS011;44294;48.282;14.282;2024-03-02T06:50:36;63.43;;;30.13;;
28756;SDS011;44294;48.282;14.282;2024-03-02T06:53:23;62.00;;;29.37;;
28756;SDS011;44294;48.282;14.282;2024-03-02T06:56:11;70.87;;;33.23;;
28756;SDS011;44294;48.282;14.282;2024-03-02T06:58:58;77.13;;;35.80;;
28756;SDS011;44294;48.282;14.282;2024-03-02T07:01:45;71.47;;;32.00;;
28756;SDS011;44294;48.282;14.282;2024-03-02T07:04:33;74.70;;;33.33;;
28756;SDS011;44294;48.282;14.282;2024-03-02T07:07:20;66.70;;;31.77;;
28756;SDS011;44294;48.282;14.282;2024-03-02T07:10:08;71.43;;;33.30;;
28756;SDS011;44294;48.282;14.282;2024-03-02T07:12:55;69.80;;;33.13;;
28756;SDS011;44294;48.282;14.282;2024-03-02T07:15:42;64.97;;;31.40;;
28756;SDS011;44294;48.282;14.282;2024-03-02T07:18:31;67.20;;;32.63;;
28756;SDS011;44294;48.282;14.282;2024-03-02T07:21:19;72.77;;;33.30;;
28756;SDS011;44294;48.282;14.282;2024-03-02T07:24:08;74.93;;;34.47;;
28756;SDS011;44294;48.282;14.282;2024-03-02T07:26:57;72.13;;;34.17;;
28756;SDS011;44294;48.282;14.282;2024-03-02T07:29:44;72.17;;;33.80;;
28756;SDS011;44294;48.282;14.282;2024-03-02T07:32:32;66.10;;;32.00;;
28756;SDS011;44294;48.282;14.282;2024-03-02T07:35:19;70.40;;;33.40;;
28756;SDS011;44294;48.282;14.282;2024-03-02T07:38:08;74.67;;;36.00;;
28756;SDS011;44294;48.282;14.282;2024-03-02T07:40:56;75.03;;;34.53;;
28756;SDS011;44294;48.282;14.282;2024-03-02T07:43:43;71.50;;;34.90;;
28756;SDS011;44294;48.282;14.282;2024-03-02T07:46:31;68.83;;;33.70;;
28756;SDS011;44294;48.282;14.282;2024-03-02T07:51:48;72.50;;;35.93;;
28756;SDS011;44294;48.282;14.282;2024-03-02T07:54:35;86.57;;;39.80;;
28756;SDS011;44294;48.282;14.282;2024-03-02T07:57:23;75.33;;;37.17;;
28756;SDS011;44294;48.282;14.282;2024-03-02T08:00:10;76.47;;;34.30;;
28756;SDS011;44294;48.282;14.282;2024-03-02T08:02:58;70.00;;;33.87;;
28756;SDS011;44294;48.282;14.282;2024-03-02T08:05:45;67.47;;;33.97;;
28756;SDS011;44294;48.282;14.282;2024-03-02T08:08:32;73.80;;;36.33;;
28756;SDS011;44294;48.282;14.282;2024-03-02T08:11:20;75.83;;;35.17;;
28756;SDS011;44294;48.282;14.282;2024-03-02T08:14:07;69.87;;;33.47;;
28756;SDS011;44294;48.282;14.282;2024-03-02T08:16:55;64.00;;;31.43;;
28756;SDS011;44294;48.282;14.282;2024-03-02T08:19:42;80.43;;;36.23;;
28756;SDS011;44294;48.282;14.282;2024-03-02T08:22:30;78.27;;;37.33;;
28756;SDS011;44294;48.282;14.282;2024-03-02T08:25:18;73.20;;;36.33;;
28756;SDS011;44294;48.282;14.282;2024-03-02T08:28:05;74.27;;;36.63;;
28756;SDS011;44294;48.282;14.282;2024-03-02T08:30:53;72.70;;;34.97;;
28756;SDS011;44294;48.282;14.282;2024-03-02T08:33:40;70.50;;;33.90;;
28756;SDS011;44294;48.282;14.282;2024-03-02T08:36:27;77.63;;;37.60;;
28756;SDS011;44294;48.282;14.282;2024-03-02T08:39:14;70.40;;;33.53;;
28756;SDS011;44294;48.282;14.282;2024-03-02T08:42:02;67.53;;;33.37;;
28756;SDS011;44294;48.282;14.282;2024-03-02T08:44:50;77.70;;;37.77;;
28756;SDS011;44294;48.282;14.282;2024-03-02T08:47:38;94.70;;;43.87;;
28756;SDS011;44294;48.282;14.282;2024-03-02T08:50:25;81.20;;;38.27;;
28756;SDS011;44294;48.282;14.282;2024-03-02T08:53:12;70.53;;;34.23;;
28756;SDS011;44294;48.282;14.282;2024-03-02T08:56:02;67.93;;;32.40;;
28756;SDS011;44294;48.282;14.282;2024-03-02T08:58:51;62.13;;;30.33;;
28756;SDS011;44294;48.282;14.282;2024-03-02T09:01:38;80.83;;;32.77;;
28756;SDS011;44294;48.282;14.282;2024-03-02T09:04:27;72.90;;;35.77;;
28756;SDS011;44294;48.282;14.282;2024-03-02T09:07:15;84.20;;;37.77;;
28756;SDS011;44294;48.282;14.282;2024-03-02T09:10:03;72.93;;;35.43;;
28756;SDS011;44294;48.282;14.282;2024-03-02T09:12:50;74.43;;;36.07;;
28756;SDS011;44294;48.282;14.282;2024-03-02T09:15:38;79.73;;;37.23;;
28756;SDS011;44294;48.282;14.282;2024-03-02T09:18:26;74.17;;;36.60;;
28756;SDS011;44294;48.282;14.282;2024-03-02T09:21:14;75.40;;;37.40;;
28756;SDS011;44294;48.282;14.282;2024-03-02T09:24:01;79.20;;;37.30;;
28756;SDS011;44294;48.282;14.282;2024-03-02T09:26:49;74.53;;;36.13;;
28756;SDS011;44294;48.282;14.282;2024-03-02T09:29:37;64.07;;;33.00;;
28756;SDS011;44294;48.282;14.282;2024-03-02T09:32:25;76.60;;;37.00;;
28756;SDS011;44294;48.282;14.282;2024-03-02T09:35:12;70.57;;;34.43;;
28756;SDS011;44294;48.282;14.282;2024-03-02T09:37:59;72.17;;;34.93;;
28756;SDS011;44294;48.282;14.282;2024-03-02T09:40:47;69.87;;;33.77;;
28756;SDS011;44294;48.282;14.282;2024-03-02T09:43:34;66.57;;;32.73;;
28756;SDS011;44294;48.282;14.282;2024-03-02T09:46:22;65.97;;;33.67;;
28756;SDS011;44294;48.282;14.282;2024-03-02T09:49:10;72.73;;;35.70;;
28756;SDS011;44294;48.282;14.282;2024-03-02T09:51:57;71.80;;;34.77;;
28756;SDS011;44294;48.282;14.282;2024-03-02T09:54:46;69.50;;;35.20;;
28756;SDS011;44294;48.282;14.282;2024-03-02T09:57:34;62.23;;;31.60;;
28756;SDS011;44294;48.282;14.282;2024-03-02T10:00:21;70.93;;;34.83;;
28756;SDS011;44294;48.282;14.282;2024-03-02T10:03:11;70.27;;;34.20;;
28756;SDS011;44294;48.282;14.282;2024-03-02T10:09:05;63.53;;;30.70;;
28756;SDS011;44294;48.282;14.282;2024-03-02T10:11:52;68.37;;;34.93;;
28756;SDS011;44294;48.282;14.282;2024-03-02T10:14:39;67.77;;;34.50;;
28756;SDS011;44294;48.282;14.282;2024-03-02T10:17:27;70.73;;;34.57;;
28756;SDS011;44294;48.282;14.282;2024-03-02T10:20:22;72.80;;;33.80;;
28756;SDS011;44294;48.282;14.282;2024-03-02T10:23:11;67.20;;;32.83;;
28756;SDS011;44294;48.282;14.282;2024-03-02T10:25:58;64.13;;;32.53;;
28756;SDS011;44294;48.282;14.282;2024-03-02T10:28:46;57.90;;;29.43;;
28756;SDS011;44294;48.282;14.282;2024-03-02T10:31:33;55.57;;;28.97;;
28756;SDS011;44294;48.282;14.282;2024-03-02T10:34:21;51.93;;;26.70;;
28756;SDS011;44294;48.282;14.282;2024-03-02T10:37:10;54.43;;;28.87;;
28756;SDS011;44294;48.282;14.282;2024-03-02T10:39:59;52.67;;;27.37;;
28756;SDS011;44294;48.282;14.282;2024-03-02T10:42:46;55.83;;;29.40;;
28756;SDS011;44294;48.282;14.282;2024-03-02T10:45:34;54.10;;;27.80;;
28756;SDS011;44294;48.282;14.282;2024-03-02T10:48:22;59.87;;;31.27;;
28756;SDS011;44294;48.282;14.282;2024-03-02T10:51:10;56.60;;;30.13;;
28756;SDS011;44294;48.282;14.282;2024-03-02T10:53:58;61.77;;;31.07;;
28756;SDS011;44294;48.282;14.282;2024-03-02T10:56:47;51.00;;;26.70;;
28756;SDS011;44294;48.282;14.282;2024-03-02T10:59:35;61.23;;;31.53;;
28756;SDS011;44294;48.282;14.282;2024-03-02T11:02:24;53.13;;;27.93;;
28756;SDS011;44294;48.282;14.282;2024-03-02T11:05:12;51.33;;;27.67;;
28756;SDS011;44294;48.282;14.282;2024-03-02T11:08:01;55.50;;;28.63;;
28756;SDS011;44294;48.282;14.282;2024-03-02T11:10:51;53.77;;;28.63;;
28756;SDS011;44294;48.282;14.282;2024-03-02T11:13:39;55.63;;;29.17;;
28756;SDS011;44294;48.282;14.282;2024-03-02T11:16:36;62.47;;;32.03;;
28756;SDS011;44294;48.282;14.282;2024-03-02T11:19:22;63.53;;;31.93;;
28756;SDS011;44294;48.282;14.282;2024-03-02T11:22:10;53.37;;;28.80;;
28756;SDS011;44294;48.282;14.282;2024-03-02T11:24:58;52.73;;;28.50;;
28756;SDS011;44294;48.282;14.282;2024-03-02T11:33:25;54.90;;;28.57;;
28756;SDS011;44294;48.282;14.282;2024-03-02T11:36:14;53.23;;;28.47;;
28756;SDS011;44294;48.282;14.282;2024-03-02T11:39:02;56.53;;;29.33;;
28756;SDS011;44294;48.282;14.282;2024-03-02T11:41:50;52.33;;;27.13;;
28756;SDS011;44294;48.282;14.282;2024-03-02T11:44:37;44.67;;;25.67;;
28756;SDS011;44294;48.282;14.282;2024-03-02T11:47:25;50.03;;;27.50;;
28756;SDS011;44294;48.282;14.282;2024-03-02T11:50:14;46.40;;;25.60;;
28756;SDS011;44294;48.282;14.282;2024-03-02T11:53:01;50.27;;;28.47;;
28756;SDS011;44294;48.282;14.282;2024-03-02T11:55:49;48.87;;;26.60;;
28756;SDS011;44294;48.282;14.282;2024-03-02T11:58:37;41.60;;;24.03;;
28756;SDS011;44294;48.282;14.282;2024-03-02T12:01:27;43.50;;;25.47;;
28756;SDS011;44294;48.282;14.282;2024-03-02T12:04:14;44.20;;;23.67;;
28756;SDS011;44294;48.282;14.282;2024-03-02T12:07:02;45.53;;;24.47;;
28756;SDS011;44294;48.282;14.282;2024-03-02T12:09:59;47.80;;;25.87;;
28756;SDS011;44294;48.282;14.282;2024-03-02T12:12:47;58.70;;;28.60;;
28756;SDS011;44294;48.282;14.282;2024-03-02T12:15:35;63.53;;;30.93;;
28756;SDS011;44294;48.282;14.282;2024-03-02T12:18:28;66.20;;;31.50;;
28756;SDS011;44294;48.282;14.282;2024-03-02T12:21:15;67.63;;;32.40;;
28756;SDS011;44294;48.282;14.282;2024-03-02T12:24:02;80.70;;;37.33;;
28756;SDS011;44294;48.282;14.282;2024-03-02T12:26:50;73.83;;;36.43;;
28756;SDS011;44294;48.282;14.282;2024-03-02T12:29:38;64.37;;;31.93;;
28756;SDS011;44294;48.282;14.282;2024-03-02T12:32:25;69.73;;;33.07;;
28756;SDS011;44294;48.282;14.282;2024-03-02T12:35:13;58.80;;;30.93;;
28756;SDS011;44294;48.282;14.282;2024-03-02T12:38:01;53.37;;;27.93;;
28756;SDS011;44294;48.282;14.282;2024-03-02T12:40:48;48.03;;;26.67;;
28756;SDS011;44294;48.282;14.282;2024-03-02T12:43:38;47.77;;;25.77;;
28756;SDS011;44294;48.282;14.282;2024-03-02T12:46:25;40.63;;;22.63;;
28756;SDS011;44294;48.282;14.282;2024-03-02T12:49:13;39.27;;;22.50;;
28756;SDS011;44294;48.282;14.282;2024-03-02T12:52:03;36.17;;;20.83;;
28756;SDS011;44294;48.282;14.282;2024-03-02T12:54:50;35.97;;;20.57;;
28756;SDS011;44294;48.282;14.282;2024-03-02T12:57:39;39.07;;;21.47;;
28756;SDS011;44294;48.282;14.282;2024-03-02T13:00:26;44.33;;;24.87;;
28756;SDS011;44294;48.282;14.282;2024-03-02T13:03:14;38.50;;;22.87;;
28756;SDS011;44294;48.282;14.282;2024-03-02T13:06:03;33.97;;;20.07;;
28756;SDS011;44294;48.282;14.282;2024-03-02T13:08:51;35.93;;;19.97;;
28756;SDS011;44294;48.282;14.282;2024-03-02T13:11:38;34.03;;;20.03;;
28756;SDS011;44294;48.282;14.282;2024-03-02T13:14:26;34.23;;;19.90;;
28756;SDS011;44294;48.282;14.282;2024-03-02T13:17:13;31.10;;;19.37;;
28756;SDS011;44294;48.282;14.282;2024-03-02T13:20:00;37.13;;;21.30;;
28756;SDS011;44294;48.282;14.282;2024-03-02T13:22:49;35.10;;;20.37;;
28756;SDS011;44294;48.282;14.282;2024-03-02T13:25:38;32.87;;;19.23;;
28756;SDS011;44294;48.282;14.282;2024-03-02T13:28:25;29.33;;;17.67;;
28756;SDS011;44294;48.282;14.282;2024-03-02T13:31:13;26.93;;;16.73;;
28756;SDS011;44294;48.282;14.282;2024-03-02T13:34:00;31.87;;;18.57;;
28756;SDS011;44294;48.282;14.282;2024-03-02T13:36:47;32.87;;;18.33;;
28756;SDS011;44294;48.282;14.282;2024-03-02T13:39:35;29.93;;;17.43;;
28756;SDS011;44294;48.282;14.282;2024-03-02T13:42:29;29.77;;;17.70;;
28756;SDS011;44294;48.282;14.282;2024-03-02T13:45:16;33.07;;;18.37;;
28756;SDS011;44294;48.282;14.282;2024-03-02T13:48:04;29.87;;;18.03;;
28756;SDS011;44294;48.282;14.282;2024-03-02T13:50:52;28.97;;;17.00;;
28756;SDS011;44294;48.282;14.282;2024-03-02T13:53:39;31.03;;;17.60;;
28756;SDS011;44294;48.282;14.282;2024-03-02T13:56:26;31.53;;;18.63;;
28756;SDS011;44294;48.282;14.282;2024-03-02T13:59:14;30.13;;;17.90;;
28756;SDS011;44294;48.282;14.282;2024-03-02T14:02:01;28.10;;;16.73;;
28756;SDS011;44294;48.282;14.282;2024-03-02T14:04:50;30.57;;;18.50;;
28756;SDS011;44294;48.282;14.282;2024-03-02T14:07:38;40.87;;;25.37;;
28756;SDS011;44294;48.282;14.282;2024-03-02T14:10:25;36.33;;;21.87;;
28756;SDS011;44294;48.282;14.282;2024-03-02T14:13:13;27.27;;;16.80;;
28756;SDS011;44294;48.282;14.282;2024-03-02T14:16:02;29.23;;;17.47;;
28756;SDS011;44294;48.282;14.282;2024-03-02T14:18:49;30.93;;;17.80;;
28756;SDS011;44294;48.282;14.282;2024-03-02T14:21:37;27.87;;;16.47;;
28756;SDS011;44294;48.282;14.282;2024-03-02T14:24:24;27.70;;;17.73;;
28756;SDS011;44294;48.282;14.282;2024-03-02T14:27:12;27.10;;;17.17;;
28756;SDS011;44294;48.282;14.282;2024-03-02T14:30:00;26.93;;;17.63;;
28756;SDS011;44294;48.282;14.282;2024-03-02T14:32:47;22.67;;;14.60;;
28756;SDS011;44294;48.282;14.282;2024-03-02T14:35:35;22.60;;;14.73;;
28756;SDS011;44294;48.282;14.282;2024-03-02T14:38:22;24.47;;;16.27;;
28756;SDS011;44294;48.282;14.282;2024-03-02T14:41:10;21.27;;;15.10;;
28756;SDS011;44294;48.282;14.282;2024-03-02T14:43:57;17.07;;;12.57;;
28756;SDS011;44294;48.282;14.282;2024-03-02T14:46:47;20.77;;;13.80;;
28756;SDS011;44294;48.282;14.282;2024-03-02T14:49:35;20.47;;;14.33;;
28756;SDS011;44294;48.282;14.282;2024-03-02T14:52:24;20.13;;;13.60;;
28756;SDS011;44294;48.282;14.282;2024-03-02T14:55:11;17.93;;;12.80;;
28756;SDS011;44294;48.282;14.282;2024-03-02T14:57:59;17.13;;;12.43;;
28756;SDS011;44294;48.282;14.282;2024-03-02T15:00:47;20.43;;;13.63;;
28756;SDS011;44294;48.282;14.282;2024-03-02T15:03:37;21.40;;;14.57;;
28756;SDS011;44294;48.282;14.282;2024-03-02T15:06:25;21.43;;;14.53;;
28756;SDS011;44294;48.282;14.282;2024-03-02T15:09:12;27.50;;;15.40;;
28756;SDS011;44294;48.282;14.282;2024-03-02T15:11:59;31.30;;;20.87;;
28756;SDS011;44294;48.282;14.282;2024-03-02T15:14:47;37.50;;;26.53;;
28756;SDS011;44294;48.282;14.282;2024-03-02T15:17:34;22.80;;;16.07;;
28756;SDS011;44294;48.282;14.282;2024-03-02T15:20:21;22.47;;;15.10;;
28756;SDS011;44294;48.282;14.282;2024-03-02T15:23:09;23.20;;;14.67;;
28756;SDS011;44294;48.282;14.282;2024-03-02T15:25:56;27.70;;;15.97;;
28756;SDS011;44294;48.282;14.282;2024-03-02T15:28:43;25.87;;;17.37;;
28756;SDS011;44294;48.282;14.282;2024-03-02T15:31:31;26.47;;;17.27;;
28756;SDS011;44294;48.282;14.282;2024-03-02T15:34:18;27.20;;;17.37;;
28756;SDS011;44294;48.282;14.282;2024-03-02T15:37:05;29.87;;;17.33;;
28756;SDS011;44294;48.282;14.282;2024-03-02T15:39:53;26.47;;;16.40;;
28756;SDS011;44294;48.282;14.282;2024-03-02T15:42:40;30.00;;;18.10;;
28756;SDS011;44294;48.282;14.282;2024-03-02T15:45:27;27.40;;;16.33;;
28756;SDS011;44294;48.282;14.282;2024-03-02T15:48:16;27.10;;;17.70;;
28756;SDS011;44294;48.282;14.282;2024-03-02T15:51:04;27.57;;;17.47;;
28756;SDS011;44294;48.282;14.282;2024-03-02T15:53:51;28.50;;;17.83;;
28756;SDS011;44294;48.282;14.282;2024-03-02T15:56:39;30.07;;;18.53;;
28756;SDS011;44294;48.282;14.282;2024-03-02T15:59:26;29.93;;;18.70;;
28756;SDS011;44294;48.282;14.282;2024-03-02T16:02:14;28.43;;;17.83;;
28756;SDS011;44294;48.282;14.282;2024-03-02T16:05:01;29.93;;;18.60;;
28756;SDS011;44294;48.282;14.282;2024-03-02T16:07:48;31.73;;;19.07;;
28756;SDS011;44294;48.282;14.282;2024-03-02T16:10:36;31.13;;;19.30;;
28756;SDS011;44294;48.282;14.282;2024-03-02T16:13:23;29.53;;;18.20;;
28756;SDS011;44294;48.282;14.282;2024-03-02T16:16:11;29.97;;;18.60;;
28756;SDS011;44294;48.282;14.282;2024-03-02T16:18:58;29.40;;;18.77;;
28756;SDS011;44294;48.282;14.282;2024-03-02T16:21:45;27.43;;;17.53;;